Limerick, Canada
Current Conditions -  °F | °C
As of 3:00 PM on Tuesday 25 Nov 2014 (Local Time) from CYYN Reporting Station
Overcast Overcast  
Wind Chill:   Ceiling: 700
Heat Index: 19°   Visibility: 9mi
Dew Point: 16°   Wind: 13mph
Humidity: 86%   Direction: 10°N
Pressure: 29.96"   Gusts: NA
Location:  49.65°N, 106.27°W
Report Text: CYYN 252100Z AUTO 01011KT 9SM OVC007 M07/M09 A2996 RMK PRESRR SLP186
Loading
Personal Weather Stations






























Interactive Weather Map New forecast layout! Learn more

10-Day Weather Forecast

Advertisements
Track Severe Weather on mobile